aviador You're here:

KBIL Decoded Metar

BILLINGS in MT, USA
Report Time2017-03-23 23:53:00
UTC Time2017-03-24 00:03:23
Flight Rules vfr VFR
Wind150° at 06 kt
W.Decomp.*RWY 10: 4.9 kt HW 3.5 kt RCW
RWY 07: 2.4 kt HW 5.5 kt RCW
W.Rank150° ranks 34
Current wind is above 150° avg. (5.8)
Visibility9999 m
Phenomena:Shower Rain
Clouds:Scattered 070 Hf
Broken 085 Hf
Expected CloudBase > 4,000 ft AGL from Temp-Dew spread
Ceiling8,500 ft
Temp12°C (ISA +4)
Dew Point02°C (51% RH)
AAT8.2°C
QNH1012 hPa
Density Alt4,203 ft
Elevation3,579 ft
Report Wrong Elevation
Raw Report
METAR KBIL 232353Z 15006KT 10SM SCT070 BKN085 12/02 A2987 RMK AO2 SLP114
CB DSNT W SHRA DSNT N SW-W T01170017 10128 20094 53017=

Extra information for KBIL:More info

Metar Taf Metar & Taf Last 4 Metars F.Rules Stats Wind Profile Meteogram Temp Stats Airport Information Weather charts Add Link Nearby VenuesMetar ALERT Operation Metar Decoded Social comments

AIRNAV info for KBIL